Weidman, Michigan
Current Conditions -  °F | °C
As of 2:35 AM on Sunday 23 Nov 2014 (Local Time) from KMOP Reporting Station
Haze Haze  
Wind Chill: 41°   Ceiling: 1600
Heat Index: 45°   Visibility: 5mi
Dew Point: 44°   Wind: 6mph
Humidity: 97%   Direction: 190°S
Pressure: 29.85"   Gusts: NA
Location:  43.69°N, 84.97°W
Report Text: KMOP 230735Z AUTO 19005KT 5SM BR BKN016 BKN020 OVC026 07/07 A2985 RMK AO2 T00700065
Loading
Personal Weather Stations






























Interactive Weather Map New forecast layout! Learn more

10-Day Weather Forecast

Advertisements
Track Severe Weather on mobile